Time;durP1;ratioP1;P1;durP2;ratioP2;P2;SDS_P1;SDS_P2;PMS_P1;PMS_P2;Temp;Humidity;BMP_temperature;BMP_pressure;BME280_temperature;BME280_humidity;BME280_pressure;Samples;Min_cycle;Max_cycle;Signal;HPM_P1;HPM_P2
2020/12/23 00:01:44;;;;;;;41.13;20.33;;;1.40;99.90;;;;;;4159316;28;20333;-46
2020/12/23 00:03:45;;;;;;;44.83;19.03;;;1.40;99.90;;;;;;4160738;28;21595;-46
2020/12/23 00:05:46;;;;;;;39.10;19.23;;;1.40;99.90;;;;;;4158408;28;20282;-42
2020/12/23 00:07:48;;;;;;;37.67;17.67;;;1.40;99.90;;;;;;4158011;28;20283;-43
2020/12/23 00:09:49;;;;;;;47.10;19.07;;;1.40;99.90;;;;;;4158866;28;20278;-40
2020/12/23 00:11:52;;;;;;;40.77;19.37;;;1.40;99.90;;;;;;4141806;28;20287;-43
2020/12/23 00:13:53;;;;;;;44.00;19.87;;;1.40;99.90;;;;;;4158261;28;20321;-43
2020/12/23 00:15:54;;;;;;;45.73;21.17;;;1.40;99.90;;;;;;4160453;28;20325;-47
2020/12/23 00:17:56;;;;;;;42.43;19.53;;;1.40;99.90;;;;;;4158481;28;20820;-46
2020/12/23 00:19:57;;;;;;;46.37;20.00;;;1.40;99.90;;;;;;4160260;28;20312;-50
2020/12/23 00:21:58;;;;;;;43.77;19.67;;;1.40;99.90;;;;;;4159077;28;20389;-49
2020/12/23 00:23:59;;;;;;;48.10;22.33;;;1.40;99.90;;;;;;4145879;28;20357;-44
2020/12/23 00:26:00;;;;;;;42.20;19.87;;;1.40;99.90;;;;;;4143167;28;20716;-45
2020/12/23 00:28:01;;;;;;;42.93;21.57;;;1.40;99.90;;;;;;4142057;28;20255;-44
2020/12/23 00:30:04;;;;;;;48.13;21.40;;;1.30;99.90;;;;;;4142165;28;20318;-45
2020/12/23 00:32:05;;;;;;;46.43;20.40;;;1.40;99.90;;;;;;4141704;28;20341;-41
2020/12/23 00:34:06;;;;;;;46.17;20.77;;;1.40;99.90;;;;;;4143281;28;20256;-50
2020/12/23 00:36:12;;;;;;;47.93;21.00;;;1.30;99.90;;;;;;4147749;28;20823;-45
2020/12/23 00:38:13;;;;;;;48.97;20.47;;;1.30;99.90;;;;;;4159691;28;20275;-50
2020/12/23 00:40:14;;;;;;;49.37;21.53;;;1.40;99.90;;;;;;4157213;28;20317;-44
2020/12/23 00:42:15;;;;;;;46.27;20.60;;;1.30;99.90;;;;;;4159300;28;20267;-50
2020/12/23 00:44:17;;;;;;;48.53;23.10;;;1.30;99.90;;;;;;4158532;28;20325;-51
2020/12/23 00:46:18;;;;;;;49.83;22.17;;;1.40;99.90;;;;;;4158848;28;20766;-42
2020/12/23 00:48:20;;;;;;;51.77;23.07;;;1.40;99.90;;;;;;4158628;28;20267;-46
2020/12/23 00:50:21;;;;;;;54.47;23.13;;;1.30;99.90;;;;;;4159824;28;20828;-47
2020/12/23 00:52:22;;;;;;;48.90;21.73;;;1.30;99.90;;;;;;4158189;28;20279;-49
2020/12/23 00:54:24;;;;;;;47.93;21.17;;;1.30;99.90;;;;;;4153731;28;20341;-44
2020/12/23 00:56:25;;;;;;;53.83;22.27;;;1.30;99.90;;;;;;4141547;28;20333;-53
2020/12/23 00:58:26;;;;;;;53.57;23.77;;;1.30;99.90;;;;;;4142388;28;20275;-46
2020/12/23 01:00:28;;;;;;;47.07;20.97;;;1.30;99.90;;;;;;4142812;28;20264;-45
2020/12/23 01:02:29;;;;;;;51.47;22.47;;;1.20;99.90;;;;;;4142243;28;20280;-43
2020/12/23 01:04:30;;;;;;;48.60;22.37;;;1.20;99.90;;;;;;4125278;28;20268;-45
2020/12/23 01:06:31;;;;;;;55.30;22.13;;;1.20;99.90;;;;;;4141090;28;20283;-46
2020/12/23 01:08:33;;;;;;;55.07;24.07;;;1.20;99.90;;;;;;4142521;28;20287;-42
2020/12/23 01:10:34;;;;;;;56.30;23.60;;;1.20;99.90;;;;;;4141616;28;20299;-49
2020/12/23 01:12:35;;;;;;;55.23;24.70;;;1.20;99.90;;;;;;4148401;28;20286;-46
2020/12/23 01:14:36;;;;;;;53.57;25.53;;;1.20;99.90;;;;;;4157509;28;20364;-45
2020/12/23 01:16:37;;;;;;;54.73;24.43;;;1.10;99.90;;;;;;4158954;28;20291;-47
2020/12/23 01:18:38;;;;;;;59.73;24.87;;;1.10;99.90;;;;;;4158599;28;20271;-41
2020/12/23 01:20:40;;;;;;;59.50;25.43;;;1.10;99.90;;;;;;4159511;28;20682;-45
2020/12/23 01:22:42;;;;;;;53.50;24.00;;;1.10;99.90;;;;;;4158286;28;20797;-44
2020/12/23 01:24:43;;;;;;;67.97;26.23;;;1.10;99.90;;;;;;4141671;28;20267;-43
2020/12/23 01:26:44;;;;;;;60.53;26.67;;;1.10;99.90;;;;;;4157433;28;20271;-43
2020/12/23 01:28:45;;;;;;;66.53;25.97;;;1.10;99.90;;;;;;4158707;28;20388;-43
2020/12/23 01:30:47;;;;;;;64.77;28.57;;;1.10;99.90;;;;;;4158012;28;20305;-43
2020/12/23 01:32:48;;;;;;;66.50;29.37;;;1.10;99.90;;;;;;4147655;28;20999;-50
2020/12/23 01:34:49;;;;;;;71.43;30.70;;;1.10;99.90;;;;;;4142443;28;20346;-47
2020/12/23 01:36:52;;;;;;;67.10;29.47;;;1.10;99.90;;;;;;4140748;28;20279;-50
2020/12/23 01:38:53;;;;;;;71.13;29.07;;;1.10;99.90;;;;;;4141951;28;20302;-44
2020/12/23 01:41:02;;;;;;;61.30;27.73;;;1.20;99.90;;;;;;4141446;28;20314;-42
2020/12/23 01:43:07;;;;;;;70.27;29.93;;;1.20;99.90;;;;;;4142498;28;20275;-42
2020/12/23 01:45:08;;;;;;;68.07;28.37;;;1.20;99.90;;;;;;4148227;28;20742;-49
2020/12/23 01:47:18;;;;;;;65.63;26.33;;;1.20;99.90;;;;;;4158985;28;20274;-43
2020/12/23 01:49:20;;;;;;;63.80;27.17;;;1.20;99.90;;;;;;4156837;28;20670;-43
2020/12/23 01:51:23;;;;;;;71.03;27.83;;;1.20;99.90;;;;;;4158323;28;20107;-53
2020/12/23 01:53:26;;;;;;;67.53;29.13;;;1.10;99.90;;;;;;4153221;28;20322;-49
2020/12/23 01:55:27;;;;;;;62.47;27.60;;;1.20;99.90;;;;;;4124336;28;20410;-45
2020/12/23 01:57:28;;;;;;;57.40;26.33;;;1.20;99.90;;;;;;4141144;28;20267;-48
2020/12/23 01:59:29;;;;;;;57.03;27.70;;;1.20;99.90;;;;;;4141696;28;20271;-40
2020/12/23 02:01:40;;;;;;;58.67;26.47;;;1.20;99.90;;;;;;4140749;28;20264;-43
2020/12/23 02:03:41;;;;;;;55.17;26.10;;;1.20;99.90;;;;;;4157852;28;20282;-42
2020/12/23 02:05:42;;;;;;;55.47;26.47;;;1.20;99.90;;;;;;4157562;28;20254;-43
2020/12/23 02:07:43;;;;;;;57.47;25.90;;;1.20;99.90;;;;;;4156281;28;20298;-42
2020/12/23 02:09:48;;;;;;;58.03;26.40;;;1.20;99.90;;;;;;4157618;28;20308;-42
2020/12/23 02:11:49;;;;;;;60.23;25.07;;;1.20;99.90;;;;;;4157853;28;20279;-50
2020/12/23 02:13:51;;;;;;;59.50;27.27;;;1.20;99.90;;;;;;4158078;28;20785;-42
2020/12/23 02:15:53;;;;;;;61.43;28.00;;;1.20;99.90;;;;;;4157409;28;21145;-44
2020/12/23 02:17:54;;;;;;;63.27;27.97;;;1.20;99.90;;;;;;4157997;28;20259;-42
2020/12/23 02:19:55;;;;;;;54.53;24.37;;;1.20;99.90;;;;;;4157068;28;20317;-42
2020/12/23 02:21:58;;;;;;;57.13;26.90;;;1.20;99.90;;;;;;4158194;28;20996;-47
2020/12/23 02:24:00;;;;;;;57.33;24.83;;;1.20;99.90;;;;;;4156715;28;20254;-43
2020/12/23 02:26:01;;;;;;;68.27;27.87;;;1.20;99.90;;;;;;4157461;28;20325;-48
2020/12/23 02:28:02;;;;;;;60.47;25.63;;;1.20;99.90;;;;;;4157012;28;20309;-44
2020/12/23 02:30:06;;;;;;;55.00;26.07;;;1.20;99.90;;;;;;4157846;28;20302;-45
2020/12/23 02:32:08;;;;;;;59.90;26.97;;;1.20;99.90;;;;;;4156293;28;20274;-49
2020/12/23 02:34:09;;;;;;;57.73;24.93;;;1.20;99.90;;;;;;4146141;28;20279;-44
2020/12/23 02:36:10;;;;;;;65.20;26.87;;;1.20;99.90;;;;;;4140316;28;20291;-49
2020/12/23 02:38:11;;;;;;;57.80;25.30;;;1.20;99.90;;;;;;4141104;28;20743;-48
2020/12/23 02:40:12;;;;;;;62.27;26.70;;;1.20;99.90;;;;;;4140374;28;20271;-42
2020/12/23 02:42:13;;;;;;;60.83;25.73;;;1.20;99.90;;;;;;4140391;28;20854;-55
2020/12/23 02:44:14;;;;;;;64.70;26.10;;;1.20;99.90;;;;;;4141453;28;20259;-43
2020/12/23 02:46:16;;;;;;;63.53;25.97;;;1.20;99.90;;;;;;4140217;28;20325;-46
2020/12/23 02:48:17;;;;;;;54.90;25.57;;;1.20;99.90;;;;;;4141317;28;20814;-42
2020/12/23 02:50:18;;;;;;;70.53;28.73;;;1.20;99.90;;;;;;4139988;28;20263;-45
2020/12/23 02:52:19;;;;;;;63.20;26.40;;;1.20;99.90;;;;;;4140740;28;20272;-52
2020/12/23 02:54:21;;;;;;;63.13;27.33;;;1.20;99.90;;;;;;4139168;28;20325;-46
2020/12/23 02:56:22;;;;;;;61.60;27.33;;;1.20;99.90;;;;;;4141557;28;20333;-51
2020/12/23 02:58:23;;;;;;;62.03;27.73;;;1.30;99.90;;;;;;4139834;28;20705;-43
2020/12/23 03:00:24;;;;;;;59.33;27.13;;;1.30;99.90;;;;;;4140734;28;20387;-48
2020/12/23 03:02:25;;;;;;;64.80;27.80;;;1.30;99.90;;;;;;4140304;28;20345;-43
2020/12/23 03:04:26;;;;;;;72.37;26.93;;;1.30;99.90;;;;;;4140889;28;20337;-43
2020/12/23 03:06:27;;;;;;;64.90;28.60;;;1.20;99.90;;;;;;4139166;28;20633;-56
2020/12/23 03:08:29;;;;;;;59.23;26.50;;;1.30;99.90;;;;;;4123583;28;20779;-44
2020/12/23 03:10:30;;;;;;;60.93;26.60;;;1.30;99.90;;;;;;4139478;28;20283;-46
2020/12/23 03:12:31;;;;;;;78.97;28.10;;;1.30;99.90;;;;;;4140333;28;20310;-43
2020/12/23 03:14:32;;;;;;;61.37;26.87;;;1.30;99.90;;;;;;4145267;28;20325;-42
2020/12/23 03:16:33;;;;;;;57.60;25.93;;;1.30;99.90;;;;;;4155898;28;20302;-46
2020/12/23 03:18:34;;;;;;;62.80;26.20;;;1.30;99.90;;;;;;4156635;28;20313;-43
2020/12/23 03:20:35;;;;;;;57.37;25.43;;;1.30;99.90;;;;;;4156468;28;20820;-51
2020/12/23 03:22:36;;;;;;;56.63;25.23;;;1.20;99.90;;;;;;4157618;28;20357;-42
2020/12/23 03:24:38;;;;;;;62.67;25.67;;;1.30;99.90;;;;;;4156431;28;20283;-50
2020/12/23 03:26:39;;;;;;;55.23;23.80;;;1.30;99.90;;;;;;4157235;28;20313;-44
2020/12/23 03:28:40;;;;;;;60.13;25.60;;;1.30;99.90;;;;;;4151602;28;20698;-48
2020/12/23 03:30:41;;;;;;;61.20;26.07;;;1.30;99.90;;;;;;4141038;28;20330;-44
2020/12/23 03:32:42;;;;;;;60.43;26.10;;;1.30;99.90;;;;;;4139189;28;20686;-43
2020/12/23 03:34:43;;;;;;;58.13;24.97;;;1.30;99.90;;;;;;4141425;28;20310;-44
2020/12/23 03:36:44;;;;;;;64.20;27.60;;;1.30;99.90;;;;;;4139491;28;20271;-45
2020/12/23 03:38:46;;;;;;;64.23;27.70;;;1.30;99.90;;;;;;4140518;28;20334;-43
2020/12/23 03:40:47;;;;;;;59.53;25.87;;;1.30;99.90;;;;;;4139243;28;20263;-43
2020/12/23 03:42:48;;;;;;;59.83;27.03;;;1.30;99.90;;;;;;4140868;28;20349;-49
2020/12/23 03:44:49;;;;;;;65.93;28.70;;;1.30;99.90;;;;;;4139292;28;20349;-44
2020/12/23 03:46:50;;;;;;;59.97;27.23;;;1.30;99.90;;;;;;4139414;28;20322;-50
2020/12/23 03:48:51;;;;;;;58.83;25.10;;;1.40;99.90;;;;;;4140808;28;20272;-41
2020/12/23 03:50:53;;;;;;;56.07;24.53;;;1.40;99.90;;;;;;4139775;28;20294;-58
2020/12/23 03:52:54;;;;;;;56.83;26.73;;;1.40;99.90;;;;;;4140719;28;20661;-42
2020/12/23 03:54:55;;;;;;;56.33;25.23;;;1.40;99.90;;;;;;4138840;28;20885;-47
2020/12/23 03:56:56;;;;;;;58.83;24.10;;;1.40;99.90;;;;;;4139982;28;20396;-42
2020/12/23 03:58:57;;;;;;;58.80;25.90;;;1.30;99.90;;;;;;4139678;28;20747;-44
2020/12/23 04:01:01;;;;;;;56.50;24.97;;;1.30;99.90;;;;;;4149515;28;20298;-45
2020/12/23 04:03:02;;;;;;;59.50;25.20;;;1.30;99.90;;;;;;4155826;28;20278;-51
2020/12/23 04:05:05;;;;;;;69.33;28.80;;;1.30;99.90;;;;;;4157418;28;20283;-43
2020/12/23 04:07:06;;;;;;;52.50;25.13;;;1.30;99.90;;;;;;4155454;28;21299;-44
2020/12/23 04:09:07;;;;;;;51.53;24.13;;;1.30;99.90;;;;;;4156858;28;20271;-47
2020/12/23 04:11:09;;;;;;;58.23;24.83;;;1.30;99.90;;;;;;4154941;28;20267;-44
2020/12/23 04:13:10;;;;;;;63.37;25.80;;;1.30;99.90;;;;;;4157018;28;20729;-58
2020/12/23 04:15:11;;;;;;;57.27;24.07;;;1.30;99.90;;;;;;4157879;28;20271;-45
2020/12/23 04:17:12;;;;;;;51.40;24.07;;;1.40;99.90;;;;;;4158961;28;20279;-43
2020/12/23 04:19:13;;;;;;;53.00;25.90;;;1.40;99.90;;;;;;4150385;28;20275;-45
2020/12/23 04:21:15;;;;;;;61.03;25.27;;;1.40;99.90;;;;;;4141728;28;20271;-45
2020/12/23 04:23:16;;;;;;;63.10;24.87;;;1.40;99.90;;;;;;4143768;28;20690;-52
2020/12/23 04:25:17;;;;;;;55.93;25.00;;;1.40;99.90;;;;;;4142449;28;20326;-46
2020/12/23 04:27:18;;;;;;;59.13;24.93;;;1.40;99.90;;;;;;4143139;28;20271;-46
2020/12/23 04:29:19;;;;;;;54.53;23.30;;;1.30;99.90;;;;;;4141867;28;20322;-47
2020/12/23 04:31:20;;;;;;;50.27;24.03;;;1.40;99.90;;;;;;4142770;28;20326;-43
2020/12/23 04:33:21;;;;;;;51.57;23.40;;;1.40;99.90;;;;;;4141583;28;20287;-43
2020/12/23 04:35:23;;;;;;;50.70;23.27;;;1.40;99.90;;;;;;4142840;28;20357;-43
2020/12/23 04:37:24;;;;;;;55.07;24.27;;;1.30;99.90;;;;;;4142411;28;20310;-49
2020/12/23 04:39:25;;;;;;;54.27;23.27;;;1.40;99.90;;;;;;4142758;28;20322;-48
2020/12/23 04:41:27;;;;;;;52.40;25.03;;;1.40;99.90;;;;;;4149802;28;20262;-48
2020/12/23 04:43:28;;;;;;;54.87;25.23;;;1.40;99.90;;;;;;4159838;28;20738;-43
2020/12/23 04:45:29;;;;;;;51.77;24.77;;;1.40;99.90;;;;;;4158227;28;20320;-43
2020/12/23 04:47:32;;;;;;;60.20;24.13;;;1.50;99.90;;;;;;4159029;28;20993;-50
2020/12/23 04:49:36;;;;;;;56.77;24.10;;;1.50;99.90;;;;;;4141544;28;20263;-45
2020/12/23 04:51:40;;;;;;;53.33;24.07;;;1.50;99.90;;;;;;4147984;28;20291;-46
2020/12/23 04:53:41;;;;;;;59.33;25.57;;;1.50;99.90;;;;;;4142511;28;20775;-44
2020/12/23 04:55:44;;;;;;;55.23;26.07;;;1.50;99.90;;;;;;4141843;28;20303;-41
2020/12/23 04:57:46;;;;;;;55.87;26.93;;;1.50;99.90;;;;;;4143164;28;20330;-41
2020/12/23 04:59:48;;;;;;;57.07;25.13;;;1.60;99.90;;;;;;4141255;28;20275;-47
2020/12/23 05:01:49;;;;;;;58.33;24.20;;;1.60;99.90;;;;;;4142260;28;20357;-45
2020/12/23 05:03:54;;;;;;;58.73;26.17;;;1.60;99.90;;;;;;4140895;28;20779;-48
2020/12/23 05:05:56;;;;;;;60.83;26.20;;;1.70;99.90;;;;;;4143108;28;21160;-59
2020/12/23 05:07:58;;;;;;;47.60;24.00;;;1.70;99.90;;;;;;4140948;28;20330;-38
2020/12/23 05:10:00;;;;;;;50.33;23.30;;;1.70;99.90;;;;;;4157739;28;20279;-40
2020/12/23 05:12:02;;;;;;;52.27;24.00;;;1.70;99.90;;;;;;4158004;28;20348;-40
2020/12/23 05:14:04;;;;;;;49.33;22.47;;;1.70;99.90;;;;;;4159750;28;20317;-43
2020/12/23 05:16:09;;;;;;;51.13;22.40;;;1.70;99.90;;;;;;4157196;28;20341;-46
2020/12/23 05:18:10;;;;;;;46.77;23.17;;;1.70;99.90;;;;;;4158188;28;20275;-43
2020/12/23 05:20:11;;;;;;;53.23;24.20;;;1.60;99.90;;;;;;4157764;28;20805;-41
2020/12/23 05:22:16;;;;;;;46.00;22.90;;;1.60;99.90;;;;;;4153744;28;20663;-51
2020/12/23 05:24:17;;;;;;;47.77;23.17;;;1.60;99.90;;;;;;4142387;28;20267;-42
2020/12/23 05:26:20;;;;;;;52.10;24.17;;;1.60;99.90;;;;;;4140488;28;20322;-40
2020/12/23 05:28:25;;;;;;;51.90;24.07;;;1.60;99.90;;;;;;4143484;28;20298;-41
2020/12/23 05:30:26;;;;;;;48.87;23.10;;;1.70;99.90;;;;;;4150105;28;20336;-48
2020/12/23 05:32:28;;;;;;;48.67;23.10;;;1.70;99.90;;;;;;4145113;28;20295;-42
2020/12/23 05:34:33;;;;;;;45.37;22.43;;;1.60;99.90;;;;;;4139866;28;20708;-46
2020/12/23 05:36:37;;;;;;;44.40;21.20;;;1.60;99.90;;;;;;4141791;28;20299;-44
2020/12/23 05:38:38;;;;;;;45.13;21.17;;;1.60;99.90;;;;;;4140170;28;20314;-40
2020/12/23 05:40:39;;;;;;;47.63;21.50;;;1.60;99.90;;;;;;4141338;28;20275;-40
2020/12/23 05:42:40;;;;;;;47.63;21.70;;;1.60;99.90;;;;;;4146722;28;20278;-50
2020/12/23 05:44:55;;;;;;;43.30;21.07;;;1.60;99.90;;;;;;4147229;28;20286;-39
2020/12/23 05:46:56;;;;;;;49.53;22.07;;;1.60;99.90;;;;;;4141783;28;20294;-40
2020/12/23 05:49:00;;;;;;;45.30;21.90;;;1.60;99.90;;;;;;4152848;28;20292;-43
2020/12/23 05:51:04;;;;;;;46.27;21.40;;;1.60;99.90;;;;;;4140525;28;20330;-40
2020/12/23 05:53:13;;;;;;;44.63;22.90;;;1.60;99.90;;;;;;4141897;28;20276;-43
2020/12/23 05:55:17;;;;;;;48.80;23.07;;;1.60;99.90;;;;;;4140225;28;20280;-55
2020/12/23 05:57:21;;;;;;;46.13;21.50;;;1.70;99.90;;;;;;4141827;28;20326;-42
2020/12/23 05:59:22;;;;;;;44.43;21.00;;;1.70;99.90;;;;;;4123115;28;20284;-46
2020/12/23 06:01:23;;;;;;;48.90;21.57;;;1.70;99.90;;;;;;4141306;28;20345;-43
2020/12/23 06:03:42;;;;;;;50.63;23.23;;;1.70;99.90;;;;;;4139529;28;20337;-44
2020/12/23 06:05:44;;;;;;;52.43;22.23;;;1.70;99.90;;;;;;4141128;28;20279;-42
2020/12/23 06:07:48;;;;;;;51.50;22.87;;;1.80;99.90;;;;;;4140821;28;20314;-41
2020/12/23 06:09:57;;;;;;;51.13;23.30;;;1.70;99.90;;;;;;4141287;28;20302;-44
2020/12/23 06:12:15;;;;;;;44.90;22.90;;;1.70;99.90;;;;;;4140642;28;20288;-42
2020/12/23 06:14:18;;;;;;;52.80;21.80;;;1.70;99.90;;;;;;4140831;28;20722;-42
2020/12/23 06:16:28;;;;;;;53.70;23.47;;;1.70;99.90;;;;;;4140455;28;20296;-43
2020/12/23 06:18:36;;;;;;;59.63;23.95;;;1.70;99.90;;;;;;4140999;28;20279;-43
2020/12/23 06:20:41;;;;;;;55.17;25.07;;;1.70;99.90;;;;;;4140005;28;20096;-44
2020/12/23 06:22:46;;;;;;;55.40;24.90;;;1.70;99.90;;;;;;4140848;28;20260;-42
2020/12/23 06:24:47;;;;;;;51.57;24.27;;;1.70;99.90;;;;;;4140141;28;20267;-44
2020/12/23 06:26:51;;;;;;;56.23;24.27;;;1.70;99.90;;;;;;4139678;28;21140;-43
2020/12/23 06:28:56;;;;;;;61.43;25.87;;;1.60;99.90;;;;;;4140633;28;20279;-44
2020/12/23 06:31:01;;;;;;;57.67;25.47;;;1.70;99.90;;;;;;4140510;28;20743;-52
2020/12/23 06:33:02;;;;;;;64.97;26.87;;;1.70;99.90;;;;;;4140332;28;20332;-43
2020/12/23 06:35:04;;;;;;;70.00;27.67;;;1.70;99.90;;;;;;4139410;28;20326;-46
2020/12/23 06:37:26;;;;;;;61.67;24.40;;;1.70;99.90;;;;;;4140599;28;20381;-51
2020/12/23 06:39:40;;;;;;;56.70;24.50;;;1.70;99.90;;;;;;4139363;28;20341;-49
2020/12/23 06:41:42;;;;;;;53.13;22.93;;;1.80;99.90;;;;;;4140257;28;20295;-40
2020/12/23 06:44:09;;;;;;;60.03;24.53;;;1.70;99.90;;;;;;4138613;28;20318;-44
2020/12/23 06:46:10;;;;;;;53.33;22.37;;;1.80;99.90;;;;;;4137245;28;20279;-44
2020/12/23 06:48:17;;;;;;;62.83;25.10;;;1.80;99.90;;;;;;4140036;28;20259;-44
2020/12/23 06:50:21;;;;;;;61.90;25.90;;;1.70;99.90;;;;;;4140918;28;20655;-50
2020/12/23 06:52:22;;;;;;;59.33;26.17;;;1.70;99.90;;;;;;4139100;28;20349;-46
2020/12/23 06:54:52;;;;;;;49.60;24.00;;;1.70;99.90;;;;;;4141187;28;20268;-45
2020/12/23 06:56:54;;;;;;;53.83;22.63;;;1.80;99.90;;;;;;4140291;28;20283;-48
2020/12/23 06:58:55;;;;;;;51.73;22.63;;;1.80;99.90;;;;;;4140035;28;20098;-48
2020/12/23 07:01:15;;;;;;;62.23;24.67;;;1.80;99.90;;;;;;4139086;28;20264;-46
2020/12/23 07:03:17;;;;;;;55.42;23.15;;;1.80;99.90;;;;;;4140548;28;20255;-41
2020/12/23 07:05:21;;;;;;;51.50;23.23;;;1.80;99.90;;;;;;4139478;28;20045;-49
2020/12/23 07:07:33;;;;;;;58.07;23.70;;;1.70;99.90;;;;;;4140847;28;20325;-52
2020/12/23 07:09:35;;;;;;;55.03;24.60;;;1.80;99.90;;;;;;4138950;28;20284;-55
2020/12/23 07:11:37;;;;;;;59.53;24.70;;;1.70;99.90;;;;;;4140225;28;20291;-43
2020/12/23 07:13:39;;;;;;;55.43;24.77;;;1.70;99.90;;;;;;4138392;28;20770;-43
2020/12/23 07:15:55;;;;;;;53.23;24.27;;;1.70;99.90;;;;;;4140470;28;20337;-47
2020/12/23 07:17:56;;;;;;;56.87;24.60;;;1.70;99.90;;;;;;4139982;28;20268;-42
2020/12/23 07:19:58;;;;;;;53.60;24.53;;;1.70;99.90;;;;;;4141211;28;20322;-60
2020/12/23 07:22:00;;;;;;;66.40;27.03;;;1.80;99.90;;;;;;4138400;28;20283;-40
2020/12/23 07:24:01;;;;;;;66.07;26.40;;;1.80;99.90;;;;;;4141005;28;20275;-63
2020/12/23 07:26:05;;;;;;;55.97;24.60;;;1.80;99.90;;;;;;4139550;28;20322;-52
2020/12/23 07:28:08;;;;;;;54.50;23.83;;;1.80;99.90;;;;;;4140968;28;20329;-64
2020/12/23 07:30:09;;;;;;;55.93;24.90;;;1.80;99.90;;;;;;4139504;28;20798;-44
2020/12/23 07:32:12;;;;;;;53.93;23.13;;;1.80;99.90;;;;;;4139547;28;20290;-40
2020/12/23 07:34:13;;;;;;;54.80;22.43;;;1.80;99.90;;;;;;4139898;28;20275;-41
2020/12/23 07:36:14;;;;;;;56.70;23.97;;;1.90;99.90;;;;;;4139055;28;20303;-42
2020/12/23 07:38:17;;;;;;;47.20;21.20;;;1.90;99.90;;;;;;4139334;28;20318;-43
2020/12/23 07:40:18;;;;;;;47.90;20.63;;;1.90;99.90;;;;;;4139295;28;20683;-40
2020/12/23 07:42:20;;;;;;;53.10;23.80;;;1.90;99.90;;;;;;4140943;28;20271;-45
2020/12/23 07:44:22;;;;;;;58.17;24.97;;;1.90;99.90;;;;;;4140639;28;20279;-42
2020/12/23 07:46:24;;;;;;;51.47;23.07;;;1.90;99.90;;;;;;4142071;28;20411;-46
2020/12/23 07:48:29;;;;;;;55.60;24.63;;;2.00;99.90;;;;;;4138086;28;20268;-46
2020/12/23 07:50:32;;;;;;;49.67;24.57;;;2.00;99.90;;;;;;4146686;28;20259;-39
2020/12/23 07:52:34;;;;;;;49.77;22.67;;;2.10;99.90;;;;;;4143748;28;20320;-50
2020/12/23 07:54:35;;;;;;;45.80;22.90;;;2.10;99.90;;;;;;4158444;28;20275;-43
2020/12/23 07:56:39;;;;;;;48.60;23.10;;;2.20;99.90;;;;;;4159219;28;20852;-43
2020/12/23 07:58:43;;;;;;;47.53;22.27;;;2.20;99.90;;;;;;4160601;28;20282;-46
2020/12/23 08:00:44;;;;;;;47.97;23.17;;;2.20;99.90;;;;;;4158779;28;20333;-43
2020/12/23 08:02:46;;;;;;;49.50;23.00;;;2.20;99.90;;;;;;4159793;28;20275;-46
2020/12/23 08:04:47;;;;;;;52.43;24.03;;;2.30;99.90;;;;;;4158500;28;20258;-45
2020/12/23 08:06:48;;;;;;;52.90;24.43;;;2.30;99.90;;;;;;4148191;28;20631;-42
2020/12/23 08:08:50;;;;;;;54.97;24.73;;;2.30;99.90;;;;;;4142295;28;20322;-41
2020/12/23 08:10:51;;;;;;;46.60;22.50;;;2.30;99.90;;;;;;4143004;28;20362;-42
2020/12/23 08:12:58;;;;;;;47.57;21.90;;;2.30;99.90;;;;;;4141372;28;20291;-47
2020/12/23 08:14:59;;;;;;;44.63;21.53;;;2.30;99.90;;;;;;4145315;28;20321;-41
2020/12/23 08:17:00;;;;;;;40.77;19.30;;;2.40;99.90;;;;;;4155242;28;20701;-39
2020/12/23 08:19:01;;;;;;;44.60;21.13;;;2.40;99.90;;;;;;4157949;28;20797;-39
2020/12/23 08:21:19;;;;;;;48.90;23.20;;;2.30;99.90;;;;;;4142576;28;20278;-39
2020/12/23 08:23:20;;;;;;;48.00;24.00;;;2.30;99.90;;;;;;4157423;28;21008;-42
2020/12/23 08:25:23;;;;;;;46.63;22.20;;;2.40;99.90;;;;;;4158052;28;20340;-42
2020/12/23 08:27:24;;;;;;;49.70;24.47;;;2.30;99.90;;;;;;4141114;28;20350;-48
2020/12/23 08:29:25;;;;;;;48.67;22.00;;;2.40;99.90;;;;;;4142472;28;20283;-41
2020/12/23 08:31:32;;;;;;;44.93;22.50;;;2.30;99.90;;;;;;4149179;28;20360;-38
2020/12/23 08:33:35;;;;;;;43.67;21.57;;;2.30;99.90;;;;;;4154051;28;20349;-43
2020/12/23 08:35:39;;;;;;;46.67;21.17;;;2.30;99.90;;;;;;4141719;28;20325;-49
2020/12/23 08:37:40;;;;;;;40.07;19.20;;;2.30;99.90;;;;;;4143087;28;20364;-40
2020/12/23 08:39:41;;;;;;;42.80;19.60;;;2.40;99.90;;;;;;4142156;28;20337;-38
2020/12/23 08:41:42;;;;;;;37.17;17.37;;;2.30;99.90;;;;;;4142363;28;20267;-43
2020/12/23 08:43:46;;;;;;;43.70;21.23;;;2.30;99.90;;;;;;4142236;28;20275;-55
2020/12/23 08:45:47;;;;;;;36.97;18.23;;;2.30;99.90;;;;;;4143407;28;20259;-38
2020/12/23 08:47:50;;;;;;;41.83;21.40;;;2.30;99.90;;;;;;4140802;28;20279;-48
2020/12/23 08:49:53;;;;;;;44.77;21.70;;;2.30;99.90;;;;;;4141561;28;20279;-38
2020/12/23 08:51:54;;;;;;;44.03;21.80;;;2.30;99.90;;;;;;4124221;28;20324;-45
2020/12/23 08:53:56;;;;;;;39.00;20.00;;;2.30;99.90;;;;;;4141726;28;20268;-41
2020/12/23 08:55:57;;;;;;;38.30;19.87;;;2.30;99.90;;;;;;4142455;28;20317;-40
2020/12/23 08:58:08;;;;;;;49.67;22.97;;;2.30;99.90;;;;;;4140910;28;20299;-46
2020/12/23 09:00:20;;;;;;;44.03;22.45;;;2.30;99.90;;;;;;4141683;28;20271;-41
2020/12/23 09:02:22;;;;;;;50.57;23.37;;;2.30;99.90;;;;;;4139919;28;20084;-40
2020/12/23 09:04:30;;;;;;;43.67;21.70;;;2.40;99.90;;;;;;4142282;28;20350;-53
2020/12/23 09:06:37;;;;;;;46.20;22.93;;;2.40;99.90;;;;;;4140957;28;20318;-41
2020/12/23 09:08:39;;;;;;;45.00;23.17;;;2.40;99.90;;;;;;4143343;28;20403;-52
2020/12/23 09:10:51;;;;;;;41.00;20.13;;;2.40;99.90;;;;;;4140652;28;20305;-40
2020/12/23 09:13:13;;;;;;;37.07;19.63;;;2.40;99.90;;;;;;4142925;28;20821;-41
2020/12/23 09:15:14;;;;;;;38.93;19.80;;;2.40;99.90;;;;;;4141316;28;20267;-45
2020/12/23 09:17:23;;;;;;;44.23;21.33;;;2.40;99.90;;;;;;4142581;28;20291;-42
2020/12/23 09:19:41;;;;;;;47.83;23.50;;;2.40;99.90;;;;;;4141004;28;20271;-51
2020/12/23 09:21:42;;;;;;;42.30;20.73;;;2.50;99.90;;;;;;4142407;28;20271;-48
2020/12/23 09:23:43;;;;;;;48.13;23.73;;;2.50;99.90;;;;;;4144236;28;20318;-49
2020/12/23 09:25:44;;;;;;;48.17;23.43;;;2.50;99.90;;;;;;4141852;28;20353;-44
2020/12/23 09:27:50;;;;;;;50.00;23.33;;;2.50;99.90;;;;;;4141138;28;20338;-49
2020/12/23 09:29:52;;;;;;;41.93;21.60;;;2.60;99.90;;;;;;4125517;28;20327;-44
2020/12/23 09:31:54;;;;;;;45.03;21.83;;;2.60;99.90;;;;;;4140885;28;20283;-46
2020/12/23 09:33:55;;;;;;;44.50;20.83;;;2.60;99.90;;;;;;4141371;28;20671;-46
2020/12/23 09:36:06;;;;;;;41.97;22.60;;;2.60;99.90;;;;;;4133067;28;20287;-48
2020/12/23 09:38:11;;;;;;;37.70;19.60;;;2.50;99.90;;;;;;4158280;28;20298;-47
2020/12/23 09:40:12;;;;;;;48.30;22.07;;;2.60;99.90;;;;;;4150874;28;20271;-45
2020/12/23 09:42:13;;;;;;;43.40;21.30;;;2.60;99.90;;;;;;4158757;28;20266;-40
2020/12/23 09:44:15;;;;;;;46.47;22.60;;;2.60;99.90;;;;;;4157683;28;20753;-54
2020/12/23 09:46:17;;;;;;;47.60;22.80;;;2.60;99.90;;;;;;4158813;28;20278;-58
2020/12/23 09:48:19;;;;;;;48.83;23.77;;;2.60;99.90;;;;;;4157748;28;20266;-48
2020/12/23 09:50:20;;;;;;;49.73;24.20;;;2.70;99.90;;;;;;4156644;28;20271;-49
2020/12/23 09:52:21;;;;;;;53.93;26.23;;;2.80;99.90;;;;;;4157496;28;20320;-39
2020/12/23 09:54:22;;;;;;;56.63;24.67;;;2.80;99.90;;;;;;4157139;28;20282;-45
2020/12/23 09:56:23;;;;;;;53.50;24.17;;;2.80;99.90;;;;;;4157722;28;20604;-48
2020/12/23 09:58:25;;;;;;;60.53;26.10;;;2.80;99.90;;;;;;4156796;28;20275;-46
2020/12/23 10:00:27;;;;;;;48.30;23.83;;;2.80;99.90;;;;;;4150598;28;20322;-54
2020/12/23 10:02:28;;;;;;;53.07;24.37;;;2.80;99.90;;;;;;4140535;28;20811;-40
2020/12/23 10:04:29;;;;;;;53.93;25.37;;;2.80;99.90;;;;;;4141776;28;20330;-55
2020/12/23 10:06:31;;;;;;;48.93;23.17;;;2.80;99.90;;;;;;4140049;28;20373;-39
2020/12/23 10:08:32;;;;;;;53.00;25.13;;;2.80;99.90;;;;;;4141691;28;20806;-51
2020/12/23 10:10:34;;;;;;;60.57;26.20;;;2.80;99.90;;;;;;4140207;28;20779;-58
2020/12/23 10:12:36;;;;;;;56.03;26.20;;;2.90;99.90;;;;;;4129848;28;20283;-47
2020/12/23 10:14:37;;;;;;;59.40;28.40;;;2.90;99.90;;;;;;4145213;28;20305;-50
2020/12/23 10:16:38;;;;;;;56.40;25.57;;;2.90;99.90;;;;;;4141703;28;20267;-44
2020/12/23 10:18:40;;;;;;;54.13;26.50;;;2.90;99.90;;;;;;4140231;28;20279;-50
2020/12/23 10:20:41;;;;;;;57.27;25.77;;;2.90;99.90;;;;;;4141055;28;20821;-41
2020/12/23 10:22:42;;;;;;;53.00;25.10;;;3.00;99.90;;;;;;4155954;28;20336;-39
2020/12/23 10:24:43;;;;;;;56.67;26.87;;;3.00;99.90;;;;;;4155359;28;20283;-44
2020/12/23 10:26:44;;;;;;;59.57;27.20;;;3.00;99.90;;;;;;4157543;28;20674;-54
2020/12/23 10:28:45;;;;;;;64.73;28.47;;;3.20;99.90;;;;;;4156772;28;20263;-43
2020/12/23 10:30:47;;;;;;;63.77;26.57;;;3.20;99.90;;;;;;4156750;28;20674;-46